Home PIREPS Pireps

Flight BEL2173

  • Submitted By: John Hewson
  • Departure Airport: Bruxelles National (EBBR)
  • Arrival Airport: Manchester Airport (EGCC)
  • Aircraft: BAE AVRO RJ1 (OO-DWA)
  • Flight Time: 01.20
  • Date Submitted: 28/08/2015
  • Status: Accepted
Flight Details
Gross Revenue:
(85 load / € 72.00 per unit
€ 6,120.00
Fuel Cost:
(3085 fuel used @ 5.1 / unit)
€ 15,733.50

Additional Log Information:

View Log

Aircraft Used in flight is QWSim Avro RJ100 - Brussels Airlines OO-DWE - Co
13:11 Navigation Lights ON at 190 AGL
13:11 Brakes are On
13:14 Beacon Lights ON at 190 AGL
13:15 Brakes are Released
13:15 Engine 1 Started
13:16 Engine 2 Started
13:16 Brakes are On
13:16 Engine 3 Started
13:16 Engine 4 Started
13:17Flaps 1 Selected at 190ft and 0kts
13:17Flaps 2 Selected at 190ft and 0kts
13:17 Brakes are Released
13:20 Strobe Lights ON at 190 AGL
13:22 You Took off @ 152 Knots and Flaps at Position 2
Departure Weather
EBBR 281150Z 25006KT 210V300 9999 SCT032 19/12 Q1019 NOSIGrn
13:22 Landing Gear Up @ 160 Knots and 250 Feet
13:22Flaps 1 Selected at 440ft and 175kts
13:22Flaps Retracted at 1130ft and 220kts
13:29 Paused
13:29 Unpaused
14:18Flaps 1 Selected at 3450ft and 229kts
14:19Flaps 2 Selected at 3470ft and 206kts
14:20 Paused
14:21 Unpaused
14:23 Landing Gear Down @ 172 Knots and 3420 Feet
14:23Flaps 3 Selected at 3390ft and 168kts
14:33 You Landed @ 121 Knots and with -100 Vertical Speed
Arrival Weather
EGCC 281320Z 22013KT 160V250 9999 VCSH FEW015 SCT045TCU 19/10 Q1014 NOSIGrn
14:33 Brakes are On
14:33 Engine 1 Stoped
14:33 Engine 2 Stoped
14:33 Engine 3 Stoped
14:33 Engine 4 Stoped
14:33 Brussels Bel-Track1.0.0.11

Route Map

Corporate About Us Our Team Vacancies Information Fleet Route Network Rules and Regulations Operations Flight Schedules Event Center Tours Partners IVAO Vatsim Acars dev FSCB

fb Users Online No pilots online!
0 Pilot(s) and 138 Guest(s) Online
CMS by phpVMS - Design by Crazycreatives.com - Copyright © 2018 - Brussels Airlines Virtual